Weather at Chambly Airport [CLOSED]

Public forecast

Using degrees Celsius for public forecast. Weather courtesy of forecast.io.

Closest aviation weather report (METAR) to Chambly Airport

Closest report is Montréal / Saint-Hubert Airport, 8.7 nm (16.0 km) NW.

2024/05/18 22:00 (retrieved 33 minutes ago)

CYHU 182200Z AUTO 07013KT 9SM FEW046 OVC055 23/13 A2995 RMK SLP145 DENSITY ALT 1100FT

Closest aviation forecast (TAF) to Chambly Airport

Closest forecast is Montréal / Saint-Hubert Airport, 8.7 nm (16.0 km) NW.

2024/05/18 18:45 (retrieved 4 hours ago)

TAF TAF CYHU 181740Z 1818/1918 14010G20KT P6SM FEW050 SCT130 BECMG 1823/1824 14008KT FM190800 14006KT P6SM FEW040 RMK FCST BASED ON AUTO OBS NXT FCST BY 190000Z